Nagaleader — VRDD5 — position and weather

sailwx.info

Track history (hours):
 
Tides and Currents Weather Stations Pressure Air Temp Water Temp Dewpoint Dewpoint Depression Visibility Wind Speed Wind Dir Waves Ship Positions

Nagaleader

Last reported at 2014-Aug-29 18:33 UTC. Time now 2014-Aug-30 08:30 UTC.
Position N 22°51' E 120°04'.

Length 113 m; draft 5.9 m.

Type: Cargo ship. MMSI: 477926700.

Date/timePositionNaut miles runAvg speedWind from/ knotsBaromVisibWave heightAir tempDewpointWater temp
2014-Aug-29 18:33N 22°51' E 120°04'1211.9
2014-Aug-29 17:33N 22°41' E 120°10'1010.0
2014-Aug-29 16:33N 22°35' E 120°18'1 0.9
2014-Aug-29 15:23N 22°34' E 120°19'0 0.0
2014-Aug-29 14:29N 22°34' E 120°19'0 0.0
2014-Aug-29 13:23N 22°34' E 120°19'0 0.0
2014-Aug-29 12:29N 22°34' E 120°19'0 0.0
2014-Aug-29 11:17N 22°34' E 120°19'0 0.1
2014-Aug-29 10:17N 22°34' E 120°19'1 0.2
2014-Aug-29 05:04N 22°33' E 120°20'3 4.9
2014-Aug-29 04:33N 22°33' E 120°17'1 1.0
2014-Aug-29 03:33N 22°32' E 120°16'1 0.7
2014-Aug-29 02:33N 22°32' E 120°17'0 0.0
2014-Aug-29 01:33N 22°32' E 120°17'0 0.0
2014-Aug-29 00:33N 22°32' E 120°17'0 0.0
2014-Aug-28 23:32N 22°32' E 120°17'0 0.1
2014-Aug-28 22:33N 22°32' E 120°17'0 0.1
2014-Aug-28 21:33N 22°32' E 120°17'9 9.3
2014-Aug-28 20:33N 22°38' E 120°10'17411.3
2014-Aug-28 05:07N 25°32' E 119°58'3512.6
2014-Aug-28 02:20N 26°05' E 119°46'10 9.5
2014-Aug-28 01:19N 26°08' E 119°36'810.8
2014-Aug-28 00:33N 26°02' E 119°30'2 1.6
2014-Aug-27 23:28N 26°00' E 119°29'0 0.0
2014-Aug-27 22:28N 26°00' E 119°29'0 0.0
2014-Aug-27 21:28N 26°00' E 119°29'0 0.0
2014-Aug-27 20:28N 26°00' E 119°29'0 0.0
2014-Aug-27 19:16N 26°00' E 119°29'0 0.0
2014-Aug-27 18:28N 26°00' E 119°29'0 0.0
2014-Aug-27 17:28N 26°00' E 119°29'0 0.0
2014-Aug-27 16:28N 26°00' E 119°29'0 0.0
2014-Aug-27 15:28N 26°00' E 119°29'0 0.0
2014-Aug-27 14:22N 26°00' E 119°29'0 0.0
2014-Aug-27 13:28N 26°00' E 119°29'0 0.0
2014-Aug-27 12:22N 26°00' E 119°29'0 0.0
2014-Aug-27 11:28N 26°00' E 119°29'0 0.0
2014-Aug-27 10:28N 26°00' E 119°29'0 0.0
2014-Aug-27 09:28N 26°00' E 119°29'0 0.0
2014-Aug-27 08:28N 26°00' E 119°29'0 0.0
2014-Aug-27 07:30N 26°00' E 119°29'0 0.0
2014-Aug-27 06:28N 26°00' E 119°29'0 0.0
2014-Aug-27 05:22N 26°00' E 119°29'0 0.0
2014-Aug-27 04:27N 26°00' E 119°29'0 0.0
2014-Aug-27 03:33N 26°00' E 119°29'0 0.0
2014-Aug-27 02:27N 26°00' E 119°29'0 0.0
2014-Aug-27 01:21N 26°00' E 119°29'0 0.0
2014-Aug-27 00:27N 26°00' E 119°29'0 0.0
2014-Aug-26 23:32N 26°00' E 119°29'7 6.7
2014-Aug-26 22:33N 26°06' E 119°32'11710.4
2014-Aug-26 11:19N 24°11' E 119°56'8312.2
2014-Aug-26 04:33N 22°49' E 120°05'1111.2
2014-Aug-26 03:33N 22°39' E 120°11'9 8.7
2014-Aug-26 02:33N 22°34' E 120°19'0 0.2
2014-Aug-26 01:32N 22°33' E 120°19'0 0.0
2014-Aug-26 00:32N 22°33' E 120°19'0 0.0
2014-Aug-25 23:32N 22°33' E 120°19'0 0.0
2014-Aug-25 22:32N 22°33' E 120°19'0 0.0
2014-Aug-25 21:32N 22°33' E 120°19'0 0.0
2014-Aug-25 20:32N 22°33' E 120°19'0 0.0
2014-Aug-25 19:32N 22°33' E 120°19'0 0.0
2014-Aug-25 18:32N 22°33' E 120°19'0 0.0
2014-Aug-25 17:26N 22°33' E 120°19'0 0.0
2014-Aug-25 16:32N 22°33' E 120°19'0 0.0
2014-Aug-25 15:32N 22°33' E 120°19'0 0.0
2014-Aug-25 14:32N 22°33' E 120°19'0 0.0
2014-Aug-25 13:32N 22°33' E 120°19'0 0.0
2014-Aug-25 12:26N 22°33' E 120°19'0 0.0
2014-Aug-25 11:32N 22°33' E 120°19'0 0.0
2014-Aug-25 10:14N 22°33' E 120°19'0 0.0
2014-Aug-25 09:32N 22°33' E 120°19'1 0.1
2014-Aug-24 22:33N 22°33' E 120°20'6 5.6
2014-Aug-24 21:33N 22°32' E 120°14'1312.7
2014-Aug-24 20:33N 22°43' E 120°07'11411.1
2014-Aug-24 10:14N 24°37' E 119°57'811.6
2014-Aug-24 09:32N 24°45' E 119°57'3110.5
2014-Aug-24 06:33N 25°17' E 119°58'1010.3
2014-Aug-24 05:33N 25°27' E 119°58'4210.4
2014-Aug-24 01:33N 26°06' E 119°42'9 8.6
2014-Aug-24 00:33N 26°06' E 119°32'6 6.2
2014-Aug-23 23:32N 26°00' E 119°29'0 0.0
2014-Aug-23 22:28N 26°00' E 119°29'0 0.0
2014-Aug-23 21:22N 26°00' E 119°29'0 0.0
2014-Aug-23 20:28N 26°00' E 119°29'0 0.0
2014-Aug-23 19:28N 26°00' E 119°29'131 5.4
2014-Aug-22 19:07N 23°51' E 119°56'6013.1
2014-Aug-22 14:33N 22°52' E 120°04'1212.2
2014-Aug-22 13:34N 22°41' E 120°09'1110.8
2014-Aug-22 12:34N 22°33' E 120°17'2 1.4
2014-Aug-22 11:24N 22°34' E 120°19'0 0.0
2014-Aug-22 10:30N 22°34' E 120°19'0 0.0
2014-Aug-22 08:12N 22°34' E 120°19'0 0.0
2014-Aug-22 07:30N 22°34' E 120°19'0 0.0
2014-Aug-22 05:12N 22°34' E 120°19'1 0.1
2014-Aug-21 20:10N 22°33' E 120°20'5 7.6
2014-Aug-21 19:33N 22°32' E 120°15'1212.2
2014-Aug-21 18:33N 22°42' E 120°08'6312.0
2014-Aug-21 13:16N 23°45' E 119°55'10 9.7
2014-Aug-21 12:14N 23°55' E 119°56'18 9.4
2014-Aug-21 10:21N 24°13' E 119°56'910.7
2014-Aug-21 09:33N 24°21' E 119°57'1411.7
2014-Aug-21 08:19N 24°36' E 119°57'9011.3
2014-Aug-21 00:20N 26°05' E 119°47'1011.1
2014-Aug-20 23:24N 26°08' E 119°35'8 9.1
2014-Aug-20 22:33N 26°02' E 119°30'2 2.0
2014-Aug-20 21:33N 26°00' E 119°29'0 0.0
2014-Aug-20 20:33N 26°00' E 119°29'0 0.0
2014-Aug-20 19:33N 26°00' E 119°29'0 0.0
2014-Aug-20 18:33N 26°00' E 119°29'0 0.0
2014-Aug-20 17:33N 26°00' E 119°29'0 0.0
2014-Aug-20 16:12N 26°00' E 119°29'0 0.0
2014-Aug-20 15:33N 26°00' E 119°29'0 0.0
2014-Aug-20 14:33N 26°00' E 119°29'0 0.0
2014-Aug-20 13:33N 26°00' E 119°29'0 0.0
2014-Aug-20 12:33N 26°00' E 119°29'0 0.0
2014-Aug-20 11:33N 26°00' E 119°29'0 0.0
2014-Aug-20 10:33N 26°00' E 119°29'0 0.0
2014-Aug-20 09:33N 26°00' E 119°29'0 0.0
2014-Aug-20 08:33N 26°00' E 119°29'0 0.0
2014-Aug-20 07:33N 26°00' E 119°29'0 0.0
2014-Aug-20 06:33N 26°00' E 119°29'0 0.0
2014-Aug-20 05:33N 26°00' E 119°29'0 0.0
2014-Aug-20 04:33N 26°00' E 119°29'0 0.0
2014-Aug-20 03:33N 26°00' E 119°29'0 0.0
2014-Aug-20 02:33N 26°00' E 119°29'0 0.0
2014-Aug-20 01:33N 26°00' E 119°29'0 0.0
2014-Aug-20 00:33N 26°00' E 119°29'0 0.0
2014-Aug-19 23:33N 26°00' E 119°29'0 0.0
2014-Aug-19 22:33N 26°00' E 119°29'0 0.0
2014-Aug-19 21:33N 26°00' E 119°29'0 0.0
2014-Aug-19 20:33N 26°00' E 119°29'0 0.0
2014-Aug-19 19:33N 26°00' E 119°29'0 0.0
2014-Aug-19 18:33N 26°00' E 119°29'  
Track history (hours):
 
Tides and Currents Weather Stations Pressure Air Temp Water Temp Dewpoint Dewpoint Depression Visibility Wind Speed Wind Dir Waves Ship Positions

Nagaleader

Last reported at 2014-Aug-29 18:33 UTC. Time now 2014-Aug-30 08:30 UTC.
Position N 22°51' E 120°04'.

Length 113 m; draft 5.9 m.

Type: Cargo ship. MMSI: 477926700.

Date/timePositionNaut miles runAvg speedWind from/ knotsBaromVisibWave heightAir tempDewpointWater temp
2014-Aug-29 18:33N 22°51' E 120°04'1211.9
2014-Aug-29 17:33N 22°41' E 120°10'1010.0
2014-Aug-29 16:33N 22°35' E 120°18'1 0.9
2014-Aug-29 15:23N 22°34' E 120°19'0 0.0
2014-Aug-29 14:29N 22°34' E 120°19'0 0.0
2014-Aug-29 13:23N 22°34' E 120°19'0 0.0
2014-Aug-29 12:29N 22°34' E 120°19'0 0.0
2014-Aug-29 11:17N 22°34' E 120°19'0 0.1
2014-Aug-29 10:17N 22°34' E 120°19'1 0.2
2014-Aug-29 05:04N 22°33' E 120°20'3 4.9
2014-Aug-29 04:33N 22°33' E 120°17'1 1.0
2014-Aug-29 03:33N 22°32' E 120°16'1 0.7
2014-Aug-29 02:33N 22°32' E 120°17'0 0.0
2014-Aug-29 01:33N 22°32' E 120°17'0 0.0
2014-Aug-29 00:33N 22°32' E 120°17'0 0.0
2014-Aug-28 23:32N 22°32' E 120°17'0 0.1
2014-Aug-28 22:33N 22°32' E 120°17'0 0.1
2014-Aug-28 21:33N 22°32' E 120°17'9 9.3
2014-Aug-28 20:33N 22°38' E 120°10'17411.3
2014-Aug-28 05:07N 25°32' E 119°58'3512.6
2014-Aug-28 02:20N 26°05' E 119°46'10 9.5
2014-Aug-28 01:19N 26°08' E 119°36'810.8
2014-Aug-28 00:33N 26°02' E 119°30'2 1.6
2014-Aug-27 23:28N 26°00' E 119°29'0 0.0
2014-Aug-27 22:28N 26°00' E 119°29'0 0.0
2014-Aug-27 21:28N 26°00' E 119°29'0 0.0
2014-Aug-27 20:28N 26°00' E 119°29'0 0.0
2014-Aug-27 19:16N 26°00' E 119°29'0 0.0
2014-Aug-27 18:28N 26°00' E 119°29'0 0.0
2014-Aug-27 17:28N 26°00' E 119°29'0 0.0
2014-Aug-27 16:28N 26°00' E 119°29'0 0.0
2014-Aug-27 15:28N 26°00' E 119°29'0 0.0
2014-Aug-27 14:22N 26°00' E 119°29'0 0.0
2014-Aug-27 13:28N 26°00' E 119°29'0 0.0
2014-Aug-27 12:22N 26°00' E 119°29'0 0.0
2014-Aug-27 11:28N 26°00' E 119°29'0 0.0
2014-Aug-27 10:28N 26°00' E 119°29'0 0.0
2014-Aug-27 09:28N 26°00' E 119°29'0 0.0
2014-Aug-27 08:28N 26°00' E 119°29'0 0.0
2014-Aug-27 07:30N 26°00' E 119°29'0 0.0
2014-Aug-27 06:28N 26°00' E 119°29'0 0.0
2014-Aug-27 05:22N 26°00' E 119°29'0 0.0
2014-Aug-27 04:27N 26°00' E 119°29'0 0.0
2014-Aug-27 03:33N 26°00' E 119°29'0 0.0
2014-Aug-27 02:27N 26°00' E 119°29'0 0.0
2014-Aug-27 01:21N 26°00' E 119°29'0 0.0
2014-Aug-27 00:27N 26°00' E 119°29'0 0.0
2014-Aug-26 23:32N 26°00' E 119°29'7 6.7
2014-Aug-26 22:33N 26°06' E 119°32'11710.4
2014-Aug-26 11:19N 24°11' E 119°56'8312.2
2014-Aug-26 04:33N 22°49' E 120°05'1111.2
2014-Aug-26 03:33N 22°39' E 120°11'9 8.7
2014-Aug-26 02:33N 22°34' E 120°19'0 0.2
2014-Aug-26 01:32N 22°33' E 120°19'0 0.0
2014-Aug-26 00:32N 22°33' E 120°19'0 0.0
2014-Aug-25 23:32N 22°33' E 120°19'0 0.0
2014-Aug-25 22:32N 22°33' E 120°19'0 0.0
2014-Aug-25 21:32N 22°33' E 120°19'0 0.0
2014-Aug-25 20:32N 22°33' E 120°19'0 0.0
2014-Aug-25 19:32N 22°33' E 120°19'0 0.0
2014-Aug-25 18:32N 22°33' E 120°19'0 0.0
2014-Aug-25 17:26N 22°33' E 120°19'0 0.0
2014-Aug-25 16:32N 22°33' E 120°19'0 0.0
2014-Aug-25 15:32N 22°33' E 120°19'0 0.0
2014-Aug-25 14:32N 22°33' E 120°19'0 0.0
2014-Aug-25 13:32N 22°33' E 120°19'0 0.0
2014-Aug-25 12:26N 22°33' E 120°19'0 0.0
2014-Aug-25 11:32N 22°33' E 120°19'0 0.0
2014-Aug-25 10:14N 22°33' E 120°19'0 0.0
2014-Aug-25 09:32N 22°33' E 120°19'1 0.1
2014-Aug-24 22:33N 22°33' E 120°20'6 5.6
2014-Aug-24 21:33N 22°32' E 120°14'1312.7
2014-Aug-24 20:33N 22°43' E 120°07'11411.1
2014-Aug-24 10:14N 24°37' E 119°57'811.6
2014-Aug-24 09:32N 24°45' E 119°57'3110.5
2014-Aug-24 06:33N 25°17' E 119°58'1010.3
2014-Aug-24 05:33N 25°27' E 119°58'4210.4
2014-Aug-24 01:33N 26°06' E 119°42'9 8.6
2014-Aug-24 00:33N 26°06' E 119°32'6 6.2
2014-Aug-23 23:32N 26°00' E 119°29'0 0.0
2014-Aug-23 22:28N 26°00' E 119°29'0 0.0
2014-Aug-23 21:22N 26°00' E 119°29'0 0.0
2014-Aug-23 20:28N 26°00' E 119°29'0 0.0
2014-Aug-23 19:28N 26°00' E 119°29'131 5.4
2014-Aug-22 19:07N 23°51' E 119°56'6013.1
2014-Aug-22 14:33N 22°52' E 120°04'1212.2
2014-Aug-22 13:34N 22°41' E 120°09'1110.8
2014-Aug-22 12:34N 22°33' E 120°17'2 1.4
2014-Aug-22 11:24N 22°34' E 120°19'0 0.0
2014-Aug-22 10:30N 22°34' E 120°19'0 0.0
2014-Aug-22 08:12N 22°34' E 120°19'0 0.0
2014-Aug-22 07:30N 22°34' E 120°19'0 0.0
2014-Aug-22 05:12N 22°34' E 120°19'1 0.1
2014-Aug-21 20:10N 22°33' E 120°20'5 7.6
2014-Aug-21 19:33N 22°32' E 120°15'1212.2
2014-Aug-21 18:33N 22°42' E 120°08'6312.0
2014-Aug-21 13:16N 23°45' E 119°55'10 9.7
2014-Aug-21 12:14N 23°55' E 119°56'18 9.4
2014-Aug-21 10:21N 24°13' E 119°56'910.7
2014-Aug-21 09:33N 24°21' E 119°57'1411.7
2014-Aug-21 08:19N 24°36' E 119°57'9011.3
2014-Aug-21 00:20N 26°05' E 119°47'1011.1
2014-Aug-20 23:24N 26°08' E 119°35'8 9.1
2014-Aug-20 22:33N 26°02' E 119°30'2 2.0
2014-Aug-20 21:33N 26°00' E 119°29'0 0.0
2014-Aug-20 20:33N 26°00' E 119°29'0 0.0
2014-Aug-20 19:33N 26°00' E 119°29'0 0.0
2014-Aug-20 18:33N 26°00' E 119°29'0 0.0
2014-Aug-20 17:33N 26°00' E 119°29'0 0.0
2014-Aug-20 16:12N 26°00' E 119°29'0 0.0
2014-Aug-20 15:33N 26°00' E 119°29'0 0.0
2014-Aug-20 14:33N 26°00' E 119°29'0 0.0
2014-Aug-20 13:33N 26°00' E 119°29'0 0.0
2014-Aug-20 12:33N 26°00' E 119°29'0 0.0
2014-Aug-20 11:33N 26°00' E 119°29'0 0.0
2014-Aug-20 10:33N 26°00' E 119°29'0 0.0
2014-Aug-20 09:33N 26°00' E 119°29'0 0.0
2014-Aug-20 08:33N 26°00' E 119°29'0 0.0
2014-Aug-20 07:33N 26°00' E 119°29'0 0.0
2014-Aug-20 06:33N 26°00' E 119°29'0 0.0
2014-Aug-20 05:33N 26°00' E 119°29'0 0.0
2014-Aug-20 04:33N 26°00' E 119°29'0 0.0
2014-Aug-20 03:33N 26°00' E 119°29'0 0.0
2014-Aug-20 02:33N 26°00' E 119°29'0 0.0
2014-Aug-20 01:33N 26°00' E 119°29'0 0.0
2014-Aug-20 00:33N 26°00' E 119°29'0 0.0
2014-Aug-19 23:33N 26°00' E 119°29'0 0.0
2014-Aug-19 22:33N 26°00' E 119°29'0 0.0
2014-Aug-19 21:33N 26°00' E 119°29'0 0.0
2014-Aug-19 20:33N 26°00' E 119°29'0 0.0
2014-Aug-19 19:33N 26°00' E 119°29'0 0.0
2014-Aug-19 18:33N 26°00' E 119°29'  

Dump ship's entire track history